Time;durP1;ratioP1;P1;durP2;ratioP2;P2;SDS_P1;SDS_P2;PMS_P1;PMS_P2;Temp;Humidity;BMP_temperature;BMP_pressure;BME280_temperature;BME280_humidity;BME280_pressure;Samples;Min_cycle;Max_cycle;Signal;HPM_P1;HPM_P2
2023/06/18 00:00:24;;;;;;;10.65;9.57;;;;;;;10.87;100.00;92958.66;2079954;28;20037;-83
2023/06/18 00:01:28;;;;;;;12.38;9.80;;;;;;;10.92;100.00;92960.09;2088618;28;20036;-83
2023/06/18 00:02:37;;;;;;;11.25;9.73;;;;;;;10.87;100.00;92964.03;2093608;28;20086;-83
2023/06/18 00:03:47;;;;;;;14.40;9.75;;;;;;;10.92;100.00;92965.44;2083042;28;20072;-84
2023/06/18 00:04:57;;;;;;;10.57;9.48;;;;;;;10.86;100.00;92967.88;2079257;28;20025;-82
2023/06/18 00:06:04;;;;;;;13.05;10.52;;;;;;;10.82;100.00;92969.88;2075995;28;20556;-83
2023/06/18 00:07:12;;;;;;;12.02;10.23;;;;;;;10.86;100.00;92961.78;2086734;28;20024;-82
2023/06/18 00:08:24;;;;;;;12.52;9.93;;;;;;;10.86;100.00;92959.09;2087982;28;20036;-84
2023/06/18 00:09:31;;;;;;;10.93;9.40;;;;;;;10.90;100.00;92957.84;2089696;28;20469;-83
2023/06/18 00:10:37;;;;;;;10.93;9.48;;;;;;;10.85;100.00;92966.38;2095121;28;20101;-83
2023/06/18 00:11:44;;;;;;;11.35;10.07;;;;;;;10.80;100.00;92964.97;2094805;28;20051;-83
2023/06/18 00:12:56;;;;;;;13.35;10.48;;;;;;;10.77;100.00;92960.44;2088945;28;20029;-82
2023/06/18 00:14:03;;;;;;;13.93;10.32;;;;;;;10.71;100.00;92969.38;2076995;28;20037;-85
2023/06/18 00:15:13;;;;;;;11.65;10.45;;;;;;;10.69;100.00;92964.47;2085635;28;20021;-84
2023/06/18 00:16:17;;;;;;;;;;;;;;;10.77;100.00;92968.47;2095406;28;20581;-82
2023/06/18 00:17:25;;;;;;;12.27;10.60;;;;;;;10.73;100.00;92967.06;2077482;28;19917;-82
2023/06/18 00:18:35;;;;;;;19.45;13.38;;;;;;;10.77;100.00;92965.78;2081635;28;20466;-84
2023/06/18 00:19:46;;;;;;;19.83;12.93;;;;;;;10.68;100.00;92960.28;2084006;28;20037;-84
2023/06/18 00:20:59;;;;;;;18.33;12.63;;;;;;;10.74;100.00;92957.84;2086270;28;20068;-83
2023/06/18 00:22:07;;;;;;;19.25;13.68;;;;;;;10.71;100.00;92956.78;2094698;28;20143;-83
2023/06/18 00:23:13;;;;;;;13.75;12.05;;;;;;;10.76;100.00;92958.94;2095564;28;20063;-81
2023/06/18 00:24:23;;;;;;;17.85;11.18;;;;;;;10.63;100.00;92960.81;2098610;28;20025;-85
2023/06/18 00:25:30;;;;;;;16.50;11.68;;;;;;;10.69;100.00;92972.47;2093758;28;20095;-84
2023/06/18 00:26:42;;;;;;;14.25;10.68;;;;;;;10.71;100.00;92961.38;2080720;28;20052;-85
2023/06/18 00:27:54;;;;;;;16.73;10.75;;;;;;;10.70;100.00;92954.53;2082267;28;20079;-83
2023/06/18 00:29:08;;;;;;;15.43;10.65;;;;;;;10.53;100.00;92957.19;2082642;28;20031;-82
2023/06/18 00:30:16;;;;;;;15.35;10.75;;;;;;;10.61;100.00;92949.78;2085590;28;20029;-82
2023/06/18 00:31:25;;;;;;;11.85;10.40;;;;;;;10.43;100.00;92960.88;2088897;28;20021;-83
2023/06/18 00:32:34;;;;;;;15.10;10.48;;;;;;;10.44;100.00;92957.03;2094826;28;20380;-81
2023/06/18 00:33:41;;;;;;;12.45;9.93;;;;;;;10.47;100.00;92950.88;2090617;28;20030;-81
2023/06/18 00:34:53;;;;;;;15.45;9.90;;;;;;;10.54;100.00;92956.06;2090409;28;20029;-83
2023/06/18 00:36:06;;;;;;;12.63;10.43;;;;;;;10.47;100.00;92947.44;2099202;28;20096;-84
2023/06/18 00:37:15;;;;;;;14.68;11.40;;;;;;;10.44;100.00;92946.34;2090148;28;20025;-83
2023/06/18 00:38:26;;;;;;;14.57;10.93;;;;;;;10.48;100.00;92947.03;2077219;28;20026;-84
2023/06/18 00:39:34;;;;;;;12.40;10.25;;;;;;;10.49;100.00;92950.44;2093132;28;20142;-83
2023/06/18 00:40:47;;;;;;;17.77;10.50;;;;;;;10.45;100.00;92939.13;2090204;28;20469;-84
2023/06/18 00:41:56;;;;;;;18.48;11.02;;;;;;;10.42;100.00;92940.69;2080215;28;20421;-84
2023/06/18 00:43:03;;;;;;;12.82;10.63;;;;;;;10.42;100.00;92946.03;2088036;28;20363;-84
2023/06/18 00:44:09;;;;;;;15.13;11.02;;;;;;;10.41;100.00;92944.53;2083139;28;20033;-83
2023/06/18 00:45:17;;;;;;;14.05;10.82;;;;;;;10.37;100.00;92937.78;2087249;28;20393;-84
2023/06/18 00:46:26;;;;;;;13.95;10.82;;;;;;;10.41;100.00;92941.13;2082176;28;20021;-83
2023/06/18 00:47:40;;;;;;;13.68;10.50;;;;;;;10.43;100.00;92944.09;2068560;28;20053;-81
2023/06/18 00:48:51;;;;;;;12.70;10.00;;;;;;;10.46;100.00;92938.69;2102251;28;20050;-82
2023/06/18 00:49:57;;;;;;;14.50;10.65;;;;;;;10.42;100.00;92943.38;2100122;28;20066;-84
2023/06/18 00:51:07;;;;;;;14.45;10.55;;;;;;;10.45;100.00;92939.13;2094616;28;20543;-82
2023/06/18 00:52:17;;;;;;;14.65;10.35;;;;;;;10.30;100.00;92939.44;2080828;28;20032;-83
2023/06/18 00:53:25;;;;;;;12.20;10.90;;;;;;;10.42;100.00;92934.59;2083628;28;20025;-83
2023/06/18 00:54:35;;;;;;;11.95;10.52;;;;;;;10.29;100.00;92937.19;2085146;28;20379;-81
2023/06/18 00:55:44;;;;;;;14.32;10.63;;;;;;;10.30;100.00;92946.69;2083797;28;20157;-84
2023/06/18 00:56:55;;;;;;;14.73;10.70;;;;;;;10.34;100.00;92944.69;2082452;28;20037;-84
2023/06/18 00:58:03;;;;;;;13.15;10.65;;;;;;;10.25;100.00;92937.25;2084846;28;20057;-84
2023/06/18 00:59:21;;;;;;;13.60;10.77;;;;;;;10.23;100.00;92930.81;2097419;28;20075;-82
2023/06/18 01:00:34;;;;;;;11.40;10.23;;;;;;;10.17;100.00;92938.56;2092106;28;20087;-86
2023/06/18 01:01:43;;;;;;;15.30;10.25;;;;;;;10.27;100.00;92936.84;2086441;28;20025;-85
2023/06/18 01:02:53;;;;;;;14.15;10.50;;;;;;;10.15;100.00;92935.56;2096358;28;20028;-83
2023/06/18 01:04:04;;;;;;;13.73;10.45;;;;;;;10.12;100.00;92936.41;2098315;28;20100;-81
2023/06/18 01:05:16;;;;;;;12.38;10.15;;;;;;;10.14;100.00;92941.31;2093115;28;20100;-84
2023/06/18 01:06:26;;;;;;;16.02;10.70;;;;;;;10.17;100.00;92938.56;2077937;28;20029;-82
2023/06/18 01:07:28;;;;;;;12.88;9.95;;;;;;;10.15;100.00;92940.91;2074205;28;20022;-82
2023/06/18 01:08:33;;;;;;;15.10;10.07;;;;;;;10.10;100.00;92941.41;2086903;28;20123;-83
2023/06/18 01:09:43;;;;;;;13.77;10.65;;;;;;;10.07;100.00;92944.91;2086617;28;20025;-81
2023/06/18 01:10:47;;;;;;;14.63;11.15;;;;;;;10.11;100.00;92939.50;2069653;28;20422;-84
2023/06/18 01:11:54;;;;;;;14.07;10.05;;;;;;;10.07;100.00;92945.66;2087785;28;20037;-83
2023/06/18 01:13:00;;;;;;;13.35;10.10;;;;;;;10.07;100.00;92940.31;2076074;28;20129;-84
2023/06/18 01:14:09;;;;;;;14.05;10.88;;;;;;;9.96;100.00;92947.81;2076583;28;20456;-84
2023/06/18 01:15:18;;;;;;;17.77;10.95;;;;;;;9.93;100.00;92937.97;2090979;28;20029;-83
2023/06/18 01:16:25;;;;;;;14.07;10.38;;;;;;;10.01;100.00;92939.31;2080416;28;20037;-83
2023/06/18 01:17:33;;;;;;;13.30;10.25;;;;;;;9.99;100.00;92941.63;2094296;28;20477;-81
2023/06/18 01:18:53;;;;;;;12.73;10.43;;;;;;;10.01;100.00;92939.31;2087151;28;20029;-83
2023/06/18 01:20:10;;;;;;;14.35;10.93;;;;;;;9.97;100.00;92944.00;2082625;28;20033;-84
2023/06/18 01:21:24;;;;;;;12.68;11.18;;;;;;;9.97;100.00;92948.59;2079162;28;20029;-82
2023/06/18 01:23:09;;;;;;;14.70;10.05;;;;;;;9.94;100.00;92944.81;2088748;28;20052;-84
2023/06/18 01:24:27;;;;;;;12.23;9.85;;;;;;;9.80;100.00;92942.47;2088087;28;20378;-85
2023/06/18 01:25:40;;;;;;;12.52;10.27;;;;;;;9.81;100.00;92944.72;2084701;28;20037;-83
2023/06/18 01:26:48;;;;;;;11.95;10.38;;;;;;;9.88;100.00;92943.03;2080857;28;20082;-83
2023/06/18 01:28:10;;;;;;;13.13;10.02;;;;;;;9.80;100.00;92945.13;2081118;28;20517;-81
2023/06/18 01:29:17;;;;;;;12.63;10.45;;;;;;;9.84;100.00;92943.13;2089288;28;20025;-85
2023/06/18 01:30:27;;;;;;;12.07;9.40;;;;;;;9.91;100.00;92936.88;2076459;28;20037;-83
2023/06/18 01:31:39;;;;;;;13.02;9.73;;;;;;;9.89;100.00;92931.97;2080686;28;20022;-83
2023/06/18 01:32:48;;;;;;;14.38;10.30;;;;;;;9.87;100.00;92933.53;2075931;28;20460;-84
2023/06/18 01:33:58;;;;;;;13.80;9.93;;;;;;;9.86;100.00;92932.78;2079727;28;20470;-82
2023/06/18 01:35:14;;;;;;;11.45;10.25;;;;;;;9.78;100.00;92926.09;2082731;28;20063;-84
2023/06/18 01:36:49;;;;;;;11.50;10.07;;;;;;;9.81;100.00;92930.59;2092576;28;20096;-83
2023/06/18 01:38:13;;;;;;;14.48;10.00;;;;;;;9.80;100.00;92937.13;2082171;28;20037;-84
2023/06/18 01:39:58;;;;;;;11.85;9.68;;;;;;;9.91;100.00;92934.94;2096418;28;20464;-83
2023/06/18 01:41:15;;;;;;;13.82;10.30;;;;;;;9.84;100.00;92929.78;2057509;28;20526;-84
2023/06/18 01:42:26;;;;;;;11.05;9.02;;;;;;;9.83;100.00;92936.28;2095838;28;20029;-82
2023/06/18 01:43:48;;;;;;;13.63;10.32;;;;;;;9.80;100.00;92929.13;2103005;28;20464;-84
2023/06/18 01:45:06;;;;;;;12.98;10.30;;;;;;;9.80;100.00;92926.44;2088875;28;20025;-82
2023/06/18 01:46:23;;;;;;;14.15;9.85;;;;;;;9.77;100.00;92928.00;2080536;28;20030;-84
2023/06/18 01:47:32;;;;;;;13.43;10.60;;;;;;;9.67;100.00;92923.66;2075437;28;20467;-84
2023/06/18 01:48:51;;;;;;;10.95;9.85;;;;;;;9.69;100.00;92929.31;2091477;28;20028;-82
2023/06/18 01:50:03;;;;;;;12.82;10.75;;;;;;;9.69;100.00;92924.00;2089291;28;20036;-84
2023/06/18 01:51:19;;;;;;;12.18;10.20;;;;;;;9.58;100.00;92929.56;2081714;28;20025;-87
2023/06/18 01:52:27;;;;;;;14.18;10.43;;;;;;;9.67;100.00;92925.59;2070048;28;20030;-83
2023/06/18 01:53:40;;;;;;;14.68;10.63;;;;;;;9.67;100.00;92930.94;2081234;28;20164;-81
2023/06/18 01:54:49;;;;;;;11.98;9.65;;;;;;;9.63;100.00;92930.25;2085970;28;20420;-84
2023/06/18 01:55:59;;;;;;;14.55;10.38;;;;;;;9.68;100.00;92927.09;2087713;28;20049;-83
2023/06/18 01:57:09;;;;;;;12.93;10.30;;;;;;;9.68;100.00;92929.75;2091506;28;20038;-82
2023/06/18 01:58:18;;;;;;;14.82;10.35;;;;;;;9.61;100.00;92927.97;2094289;28;20025;-84
2023/06/18 01:59:29;;;;;;;14.13;10.05;;;;;;;9.63;100.00;92927.56;2090539;28;20397;-84
2023/06/18 02:00:35;;;;;;;12.82;10.40;;;;;;;9.62;100.00;92926.81;2083645;28;20079;-83
2023/06/18 02:01:51;;;;;;;11.95;9.73;;;;;;;9.57;100.00;92927.31;2077001;28;20025;-83
2023/06/18 02:02:59;;;;;;;11.00;9.80;;;;;;;9.55;100.00;92925.03;2077040;28;20029;-82
2023/06/18 02:04:09;;;;;;;13.45;10.20;;;;;;;9.62;100.00;92931.41;2090722;28;20250;-82
2023/06/18 02:05:16;;;;;;;12.25;10.73;;;;;;;9.46;100.00;92932.13;2094495;28;20024;-82
2023/06/18 02:06:25;;;;;;;11.73;10.50;;;;;;;9.42;100.00;92929.50;2087376;28;20032;-82
2023/06/18 02:07:33;;;;;;;13.97;10.60;;;;;;;9.43;100.00;92923.00;2084188;28;20618;-83
2023/06/18 02:08:41;;;;;;;12.00;9.90;;;;;;;9.50;100.00;92930.88;2090136;28;20045;-83
2023/06/18 02:09:43;;;;;;;15.23;10.43;;;;;;;9.47;100.00;92926.34;2080455;28;20025;-83
2023/06/18 02:10:53;;;;;;;14.30;10.43;;;;;;;9.50;100.00;92932.78;2066677;28;20045;-81
2023/06/18 02:12:02;;;;;;;13.35;10.52;;;;;;;9.48;100.00;92925.22;2090242;28;20037;-83
2023/06/18 02:13:12;;;;;;;13.63;9.75;;;;;;;9.47;100.00;92921.03;2092663;28;20075;-83
2023/06/18 02:14:18;;;;;;;12.82;10.70;;;;;;;9.53;100.00;92924.72;2075072;28;20026;-85
2023/06/18 02:15:25;;;;;;;15.18;11.05;;;;;;;9.46;100.00;92932.13;2087404;28;20072;-84
2023/06/18 02:16:33;;;;;;;12.98;10.23;;;;;;;9.39;100.00;92929.56;2089011;28;20025;-84
2023/06/18 02:17:42;;;;;;;11.40;9.98;;;;;;;9.45;100.00;92930.63;2087893;28;20120;-83
2023/06/18 02:18:53;;;;;;;12.80;10.02;;;;;;;9.46;100.00;92929.44;2091303;28;20492;-82
2023/06/18 02:21:35;;;;;;;;;;;;;;;9.55;100.00;92934.97;2136322;27;20616;-75
2023/06/18 02:22:41;;;;;;;13.18;9.55;;;;;;;9.56;100.00;92933.81;2132802;27;19915;-75
2023/06/18 02:23:46;;;;;;;14.23;10.90;;;;;;;9.45;100.00;92930.63;2132890;27;20050;-76
2023/06/18 02:24:53;;;;;;;14.23;10.75;;;;;;;9.49;100.00;92936.63;2114743;27;20043;-75
2023/06/18 02:26:00;;;;;;;13.32;9.95;;;;;;;9.40;100.00;92925.78;2108999;27;20035;-75
2023/06/18 02:27:07;;;;;;;12.95;10.50;;;;;;;9.40;100.00;92937.19;2106872;28;20031;-75
2023/06/18 02:28:14;;;;;;;12.65;10.38;;;;;;;9.38;100.00;92931.50;2113410;28;20036;-76
2023/06/18 02:29:24;;;;;;;13.18;10.43;;;;;;;9.50;100.00;92933.53;2121216;27;20042;-74
2023/06/18 02:30:33;;;;;;;13.43;10.70;;;;;;;9.47;100.00;92937.03;2130464;27;20461;-75
2023/06/18 02:31:41;;;;;;;12.77;10.90;;;;;;;9.61;100.00;92935.22;2134176;27;20064;-74
2023/06/18 02:32:49;;;;;;;12.98;10.10;;;;;;;9.56;100.00;92931.88;2133345;27;20086;-73
2023/06/18 02:33:56;;;;;;;13.63;10.73;;;;;;;9.57;100.00;92932.66;2122861;27;20638;-74
2023/06/18 02:35:06;;;;;;;13.85;10.40;;;;;;;9.58;100.00;92931.47;2111171;27;20040;-74
2023/06/18 02:36:10;;;;;;;15.15;10.88;;;;;;;9.48;100.00;92929.78;2116175;27;20027;-75
2023/06/18 02:37:20;;;;;;;16.02;11.07;;;;;;;9.45;100.00;92934.03;2132866;27;20038;-75
2023/06/18 02:38:28;;;;;;;14.00;11.70;;;;;;;9.56;100.00;92923.13;2106390;27;20028;-74
2023/06/18 02:39:35;;;;;;;18.65;10.93;;;;;;;9.58;100.00;92929.56;2116750;27;20040;-75
2023/06/18 02:40:46;;;;;;;12.27;10.57;;;;;;;9.34;100.00;92930.81;2116175;28;20039;-75
2023/06/18 02:41:56;;;;;;;12.82;10.20;;;;;;;9.71;100.00;92924.34;2113065;27;20043;-75
2023/06/18 02:43:05;;;;;;;17.10;10.38;;;;;;;9.65;100.00;92933.25;2104530;28;20101;-75
2023/06/18 02:44:13;;;;;;;18.20;11.30;;;;;;;9.69;100.00;92932.00;2117259;27;20032;-74
2023/06/18 02:45:24;;;;;;;12.38;10.45;;;;;;;9.61;100.00;92927.97;2120176;27;20468;-75
2023/06/18 02:46:29;;;;;;;12.43;10.50;;;;;;;9.52;100.00;92927.78;2124635;27;20027;-75
2023/06/18 02:47:37;;;;;;;14.05;10.80;;;;;;;9.59;100.00;92931.06;2124577;27;20027;-74
2023/06/18 02:48:42;;;;;;;14.52;11.10;;;;;;;9.62;100.00;92934.09;2128295;27;20063;-75
2023/06/18 02:49:51;;;;;;;14.90;10.57;;;;;;;9.59;100.00;92920.38;2121183;27;20042;-75
2023/06/18 02:50:54;;;;;;;14.45;11.15;;;;;;;9.58;100.00;92926.16;2108858;27;20032;-75
2023/06/18 02:52:02;;;;;;;15.45;11.18;;;;;;;9.44;100.00;92935.19;2108261;28;20565;-76
2023/06/18 02:53:10;;;;;;;15.20;11.55;;;;;;;9.47;100.00;92929.03;2125235;27;20199;-75
2023/06/18 02:54:21;;;;;;;14.13;10.73;;;;;;;9.46;100.00;92927.53;2123735;27;20057;-75
2023/06/18 02:55:31;;;;;;;18.23;10.95;;;;;;;9.48;100.00;92921.78;2116428;27;20386;-75
2023/06/18 02:56:35;;;;;;;15.32;10.75;;;;;;;9.49;100.00;92921.38;2123936;27;20031;-74
2023/06/18 02:57:42;;;;;;;17.65;11.60;;;;;;;9.51;100.00;92920.94;2124371;27;20039;-75
2023/06/18 02:58:55;;;;;;;15.20;11.57;;;;;;;9.47;100.00;92922.94;2126500;27;20689;-74
2023/06/18 03:00:04;;;;;;;14.25;10.40;;;;;;;9.38;100.00;92915.50;2126517;27;20113;-75
2023/06/18 03:01:09;;;;;;;17.15;10.85;;;;;;;9.41;100.00;92914.69;2122542;27;20160;-75
2023/06/18 03:02:16;;;;;;;13.27;10.43;;;;;;;9.48;100.00;92914.53;2124391;27;20037;-74
2023/06/18 03:03:25;;;;;;;15.38;11.73;;;;;;;9.42;100.00;92915.44;2121891;27;20096;-74
2023/06/18 03:04:31;;;;;;;14.68;11.25;;;;;;;9.41;100.00;92914.69;2130458;27;20444;-74
2023/06/18 03:05:38;;;;;;;14.93;11.10;;;;;;;9.39;100.00;92918.91;2130846;27;20035;-74
2023/06/18 03:06:43;;;;;;;16.52;11.10;;;;;;;9.43;100.00;92914.25;2134455;27;20022;-74
2023/06/18 03:07:51;;;;;;;17.42;11.23;;;;;;;9.35;100.00;92916.34;2120461;27;20749;-74
2023/06/18 03:08:57;;;;;;;13.40;10.98;;;;;;;9.38;100.00;92920.81;2117217;28;20054;-75
2023/06/18 03:10:06;;;;;;;16.67;11.05;;;;;;;9.41;100.00;92921.94;2118295;27;20036;-74
2023/06/18 03:11:15;;;;;;;15.55;11.20;;;;;;;9.46;100.00;92919.53;2117400;27;20036;-75
2023/06/18 03:12:26;;;;;;;14.40;11.10;;;;;;;9.38;100.00;92915.50;2105432;27;20043;-75
2023/06/18 03:13:35;;;;;;;13.40;11.10;;;;;;;9.42;100.00;92916.19;2105114;27;20036;-75
2023/06/18 03:14:44;;;;;;;17.83;11.10;;;;;;;9.43;100.00;92920.34;2124423;27;20034;-74
2023/06/18 03:15:53;;;;;;;15.55;11.48;;;;;;;9.34;100.00;92925.47;2129205;27;20049;-75
2023/06/18 03:17:03;;;;;;;13.98;10.57;;;;;;;9.37;100.00;92918.59;2131360;27;20039;-76
2023/06/18 03:18:13;;;;;;;15.23;11.70;;;;;;;9.36;100.00;92915.16;2120197;27;20027;-74
2023/06/18 03:19:22;;;;;;;15.60;11.50;;;;;;;9.24;100.00;92915.78;2121211;27;20084;-75
2023/06/18 03:20:32;;;;;;;15.75;11.73;;;;;;;9.31;100.00;92916.41;2114668;28;20031;-74
2023/06/18 03:21:40;;;;;;;13.60;11.10;;;;;;;9.24;100.00;92923.78;2118150;27;20086;-74
2023/06/18 03:22:59;;;;;;;16.63;11.25;;;;;;;9.24;100.00;92918.44;2124754;27;20031;-74
2023/06/18 03:24:10;;;;;;;14.48;11.30;;;;;;;9.27;100.00;92921.06;2129883;27;20037;-76
2023/06/18 03:25:19;;;;;;;16.40;11.75;;;;;;;9.32;100.00;92917.16;2130152;27;20038;-73
2023/06/18 03:26:26;;;;;;;13.43;11.18;;;;;;;9.25;100.00;92918.03;2125695;27;20481;-74
2023/06/18 03:27:34;;;;;;;14.73;11.13;;;;;;;9.29;100.00;92920.63;2123461;27;20027;-73
2023/06/18 03:28:43;;;;;;;15.48;11.63;;;;;;;9.32;100.00;92917.91;2121115;27;20030;-75
2023/06/18 03:29:55;;;;;;;15.33;11.67;;;;;;;9.42;100.00;92913.50;2125147;27;20045;-73
2023/06/18 03:31:02;;;;;;;15.75;11.90;;;;;;;9.31;100.00;92921.00;2123479;27;20457;-74
2023/06/18 03:32:11;;;;;;;16.27;11.27;;;;;;;9.22;100.00;92918.88;2114925;27;20019;-73
2023/06/18 03:33:17;;;;;;;14.70;11.77;;;;;;;9.33;100.00;92921.31;2093220;28;20036;-75
2023/06/18 03:34:27;;;;;;;16.20;11.48;;;;;;;9.34;100.00;92917.47;2100914;28;20043;-74
2023/06/18 03:35:36;;;;;;;16.42;11.57;;;;;;;9.36;100.00;92919.75;2107986;28;20436;-73
2023/06/18 03:36:46;;;;;;;15.00;11.50;;;;;;;9.31;100.00;92915.66;2117632;27;20547;-74
2023/06/18 03:37:55;;;;;;;20.50;10.98;;;;;;;9.27;100.00;92921.06;2123545;27;20793;-75
2023/06/18 03:39:00;;;;;;;17.80;11.98;;;;;;;9.34;100.00;92923.56;2115473;27;20023;-74
2023/06/18 03:40:08;;;;;;;17.23;11.98;;;;;;;9.28;100.00;92921.81;2111976;27;20070;-74
2023/06/18 03:41:17;;;;;;;15.88;11.70;;;;;;;9.31;100.00;92916.41;2126020;27;20028;-75
2023/06/18 03:42:27;;;;;;;12.50;10.63;;;;;;;9.30;100.00;92916.78;2122908;27;20034;-75
2023/06/18 03:43:34;;;;;;;;;;;;;;;9.27;100.00;92917.63;2123922;27;20031;-76
2023/06/18 03:44:41;;;;;;;17.05;11.57;;;;;;;9.27;100.00;92913.06;2126374;27;19911;-74
2023/06/18 03:45:49;;;;;;;14.20;11.00;;;;;;;9.32;100.00;92917.91;2117803;27;20112;-75
2023/06/18 03:47:01;;;;;;;17.08;11.80;;;;;;;9.29;100.00;92913.38;2112382;27;20043;-74
2023/06/18 03:48:09;;;;;;;15.57;11.55;;;;;;;9.44;100.00;92921.09;2124043;27;20035;-75
2023/06/18 03:49:12;;;;;;;17.35;12.23;;;;;;;9.32;100.00;92917.16;2126209;27;20095;-74
2023/06/18 03:50:22;;;;;;;15.25;11.15;;;;;;;9.35;100.00;92911.00;2124802;27;20035;-74
2023/06/18 03:51:37;;;;;;;15.95;11.35;;;;;;;9.40;100.00;92915.84;2117300;27;20060;-76
2023/06/18 03:52:45;;;;;;;15.40;11.20;;;;;;;9.41;100.00;92913.94;2117074;27;20040;-74
2023/06/18 03:53:51;;;;;;;18.15;11.85;;;;;;;9.41;100.00;92919.25;2114517;27;20569;-75
2023/06/18 03:54:56;;;;;;;14.20;11.88;;;;;;;9.40;100.00;92923.84;2109751;27;20563;-74
2023/06/18 03:56:04;;;;;;;15.82;11.18;;;;;;;9.54;100.00;92917.47;2110041;27;20071;-74
2023/06/18 03:57:38;;;;;;;12.90;10.82;;;;;;;9.51;100.00;92921.69;2102351;27;20024;-75
2023/06/18 03:58:48;;;;;;;15.50;11.90;;;;;;;9.47;100.00;92926.34;2120018;27;20102;-75
2023/06/18 03:59:57;;;;;;;;;;;;;;;9.46;100.00;92924.84;2122485;27;20121;-76
2023/06/18 04:01:07;;;;;;;15.50;11.82;;;;;;;9.43;100.00;92925.69;2110176;28;19959;-74
2023/06/18 04:02:15;;;;;;;15.32;11.55;;;;;;;9.46;100.00;92927.53;2110298;27;20066;-74
2023/06/18 04:03:25;;;;;;;17.17;11.75;;;;;;;9.43;100.00;92920.34;2102618;27;20061;-75
2023/06/18 04:04:30;;;;;;;17.45;11.70;;;;;;;9.46;100.00;92921.44;2099987;28;20032;-74
2023/06/18 04:05:37;;;;;;;14.68;12.13;;;;;;;9.42;100.00;92926.84;2115945;27;20031;-75
2023/06/18 04:06:47;;;;;;;17.10;12.07;;;;;;;9.43;100.00;92928.34;2124873;27;21513;-75
2023/06/18 04:07:56;;;;;;;14.63;11.40;;;;;;;9.43;100.00;92916.91;2118650;27;20551;-74
2023/06/18 04:09:03;;;;;;;16.52;11.82;;;;;;;9.32;100.00;92928.56;2109571;28;20035;-75
2023/06/18 04:10:10;;;;;;;20.08;11.90;;;;;;;9.40;100.00;92923.09;2113342;27;20035;-75
2023/06/18 04:11:20;;;;;;;15.70;11.43;;;;;;;9.37;100.00;92924.66;2110075;27;20069;-76
2023/06/18 04:12:27;;;;;;;17.50;11.75;;;;;;;9.36;100.00;92923.16;2110174;28;20485;-75
2023/06/18 04:13:35;;;;;;;15.75;11.80;;;;;;;9.38;100.00;92925.41;2102415;27;20052;-75
2023/06/18 04:14:40;;;;;;;16.20;12.15;;;;;;;9.35;100.00;92921.66;2111135;27;20039;-75
2023/06/18 04:15:46;;;;;;;19.58;12.43;;;;;;;9.35;100.00;92924.34;2109609;28;20028;-75
2023/06/18 04:16:52;;;;;;;17.75;11.93;;;;;;;9.32;100.00;92920.56;2087495;28;20088;-75
2023/06/18 04:18:02;;;;;;;17.40;12.02;;;;;;;9.36;100.00;92925.09;2098460;27;20402;-74
2023/06/18 04:19:07;;;;;;;14.93;11.98;;;;;;;9.40;100.00;92923.84;2101929;28;20121;-75
2023/06/18 04:20:17;;;;;;;16.00;11.90;;;;;;;9.45;100.00;92919.94;2112993;27;20051;-74
2023/06/18 04:21:23;;;;;;;17.05;12.07;;;;;;;9.46;100.00;92916.84;2116116;27;20765;-75
2023/06/18 04:22:32;;;;;;;14.48;11.73;;;;;;;9.45;100.00;92915.34;2109670;28;20031;-74
2023/06/18 04:23:42;;;;;;;18.05;12.63;;;;;;;9.38;100.00;92920.06;2106036;28;20043;-74
2023/06/18 04:24:51;;;;;;;16.40;12.10;;;;;;;9.37;100.00;92919.34;2115379;27;20066;-74
2023/06/18 04:26:04;;;;;;;17.10;12.73;;;;;;;9.51;100.00;92918.28;2128106;27;20073;-75
2023/06/18 04:27:11;;;;;;;20.30;13.25;;;;;;;9.45;100.00;92920.69;2111121;27;20035;-75
2023/06/18 04:28:18;;;;;;;16.70;12.25;;;;;;;9.54;100.00;92912.88;2086277;28;20024;-75
2023/06/18 04:29:26;;;;;;;16.70;12.40;;;;;;;9.52;100.00;92920.53;2102388;27;20051;-73
2023/06/18 04:30:30;;;;;;;19.42;12.57;;;;;;;9.58;100.00;92913.56;2111524;28;20042;-74
2023/06/18 04:31:36;;;;;;;15.30;12.10;;;;;;;9.66;100.00;92918.72;2095246;28;20448;-74
2023/06/18 04:32:45;;;;;;;17.45;12.30;;;;;;;9.69;100.00;92912.56;2098233;27;20064;-75
2023/06/18 04:33:55;;;;;;;17.15;12.88;;;;;;;9.72;100.00;92917.84;2100607;27;20507;-73
2023/06/18 04:35:01;;;;;;;15.45;11.93;;;;;;;9.74;100.00;92920.81;2102042;27;20906;-74
2023/06/18 04:36:09;;;;;;;16.75;12.25;;;;;;;9.75;100.00;92910.94;2104507;27;20039;-75
2023/06/18 04:37:18;;;;;;;17.45;12.57;;;;;;;9.80;100.00;92913.84;2125345;27;20147;-75
2023/06/18 04:38:22;;;;;;;16.42;12.32;;;;;;;9.82;100.00;92921.44;2111621;27;20027;-75
2023/06/18 04:39:31;;;;;;;15.85;11.82;;;;;;;9.84;100.00;92916.44;2101328;27;20036;-76
2023/06/18 04:40:40;;;;;;;17.25;12.63;;;;;;;9.86;100.00;92910.69;2106549;27;20407;-75
2023/06/18 04:41:50;;;;;;;20.30;12.18;;;;;;;9.86;100.00;92911.44;2107068;28;20026;-75
2023/06/18 04:42:59;;;;;;;17.08;12.73;;;;;;;9.93;100.00;92907.84;2115622;27;20035;-74
2023/06/18 04:44:12;;;;;;;19.02;12.65;;;;;;;9.89;100.00;92910.59;2125528;27;20042;-74
2023/06/18 04:45:21;;;;;;;19.75;12.13;;;;;;;10.00;100.00;92918.34;2113454;27;20028;-73
2023/06/18 04:46:28;;;;;;;18.23;12.27;;;;;;;10.00;100.00;92911.09;2124509;27;20456;-74
2023/06/18 04:47:35;;;;;;;16.73;12.50;;;;;;;10.03;100.00;92918.28;2124310;27;20023;-74
2023/06/18 04:48:46;;;;;;;15.35;11.98;;;;;;;10.10;100.00;92906.69;2126022;27;20026;-76
2023/06/18 04:49:55;;;;;;;21.58;13.30;;;;;;;10.16;100.00;92910.38;2121602;27;20121;-74
2023/06/18 04:51:05;;;;;;;16.73;12.50;;;;;;;10.20;100.00;92912.94;2124053;27;20099;-74
2023/06/18 04:52:15;;;;;;;17.73;12.20;;;;;;;10.23;100.00;92910.22;2124282;27;20027;-74
2023/06/18 04:53:21;;;;;;;22.00;12.23;;;;;;;10.26;100.00;92908.63;2120112;27;20037;-74
2023/06/18 04:54:29;;;;;;;20.45;12.90;;;;;;;10.29;100.00;92907.81;2126008;27;20385;-74
2023/06/18 04:55:41;;;;;;;19.45;12.23;;;;;;;10.28;100.00;92907.06;2121976;27;20028;-75
2023/06/18 04:56:52;;;;;;;19.00;12.25;;;;;;;10.30;100.00;92917.31;2116622;27;20034;-75
2023/06/18 04:58:00;;;;;;;21.70;12.88;;;;;;;10.32;100.00;92902.38;2115863;27;20066;-75
2023/06/18 04:59:08;;;;;;;19.98;12.35;;;;;;;10.42;100.00;92900.59;2110408;27;20020;-74
2023/06/18 05:00:13;;;;;;;18.92;12.40;;;;;;;10.51;100.00;92900.75;2112028;27;20413;-74
2023/06/18 05:01:14;;;;;;;22.52;12.00;;;;;;;10.56;100.00;92905.59;2122499;27;20033;-74
2023/06/18 05:02:15;;;;;;;17.67;12.25;;;;;;;10.59;100.00;92902.09;2126511;27;20038;-74
2023/06/18 05:03:16;;;;;;;18.52;12.73;;;;;;;10.66;100.00;92905.75;2125892;27;20082;-73
2023/06/18 05:04:17;;;;;;;18.05;12.30;;;;;;;10.71;100.00;92910.56;2127584;27;20079;-75
2023/06/18 05:05:18;;;;;;;16.33;12.55;;;;;;;10.73;100.00;92903.66;2119788;27;20525;-74
2023/06/18 05:06:20;;;;;;;16.95;12.57;;;;;;;10.80;100.00;92908.06;2126421;27;20031;-74
2023/06/18 05:07:22;;;;;;;18.67;12.75;;;;;;;10.87;100.00;92907.88;2125577;27;20109;-74
2023/06/18 05:08:24;;;;;;;16.13;12.07;;;;;;;10.96;100.00;92905.34;2124662;27;20023;-74
2023/06/18 05:09:29;;;;;;;18.08;13.07;;;;;;;11.03;100.00;92913.19;2125712;27;20041;-74
2023/06/18 05:10:33;;;;;;;16.50;12.23;;;;;;;11.07;100.00;92908.47;2125419;27;20031;-75
2023/06/18 05:11:34;;;;;;;16.23;12.27;;;;;;;11.16;100.00;92909.78;2123365;27;20026;-74
2023/06/18 05:12:35;;;;;;;16.88;12.48;;;;;;;11.21;100.00;92901.25;2124969;27;20042;-74
2023/06/18 05:13:37;;;;;;;19.88;12.85;;;;;;;11.27;100.00;92904.88;2127294;27;20088;-75
2023/06/18 05:14:38;;;;;;;18.63;12.63;;;;;;;11.30;100.00;92907.47;2117054;27;20027;-74
2023/06/18 05:15:40;;;;;;;16.88;12.32;;;;;;;11.37;100.00;92901.19;2125737;27;20466;-73
2023/06/18 05:16:41;;;;;;;17.63;13.00;;;;;;;11.42;100.00;92894.56;2121995;27;20027;-74
2023/06/18 05:17:43;;;;;;;19.20;13.13;;;;;;;11.45;100.00;92894.44;2128837;27;20030;-75
2023/06/18 05:18:45;;;;;;;22.20;12.70;;;;;;;11.50;100.00;92890.47;2121896;27;20080;-75